Time;durP1;ratioP1;P1;durP2;ratioP2;P2;SDS_P1;SDS_P2;PMS_P1;PMS_P2;Temp;Humidity;BMP_temperature;BMP_pressure;BME280_temperature;BME280_humidity;BME280_pressure;Samples;Min_cycle;Max_cycle;Signal;HPM_P1;HPM_P2
2023/03/25 00:01:07;;;;;;;;;;;19.20;51.50;;;;;;5010792;28;20341;-76
2023/03/25 00:03:33;;;;;;;;;;;19.20;51.50;;;;;;5012687;28;19914;-75
2023/03/25 00:05:59;;;;;;;;;;;19.20;51.50;;;;;;5019285;28;20370;-75
2023/03/25 00:08:25;;;;;;;;;;;19.20;51.60;;;;;;5004552;28;19917;-76
2023/03/25 00:10:54;;;;;;;;;;;19.10;51.90;;;;;;5006170;28;19925;-76
2023/03/25 00:13:20;;;;;;;;;;;19.10;51.80;;;;;;5016074;28;20012;-76
2023/03/25 00:15:57;;;;;;;;;;;19.00;51.80;;;;;;5009464;28;20381;-76
2023/03/25 00:18:23;;;;;;;;;;;19.00;51.70;;;;;;5016934;28;19920;-75
2023/03/25 00:20:49;;;;;;;;;;;19.00;51.80;;;;;;5003316;28;19921;-75
2023/03/25 00:23:15;;;;;;;;;;;19.00;51.90;;;;;;5021577;28;20458;-75
2023/03/25 00:25:43;;;;;;;;;;;19.00;51.90;;;;;;5009677;28;19925;-75
2023/03/25 00:28:09;;;;;;;;;;;19.00;51.70;;;;;;5012205;28;19947;-76
2023/03/25 00:30:36;;;;;;;;;;;19.00;51.70;;;;;;5012606;28;19920;-76
2023/03/25 00:33:01;;;;;;;;;;;19.00;51.90;;;;;;5022001;28;19925;-75
2023/03/25 00:35:27;;;;;;;;;;;18.90;51.70;;;;;;5011106;28;19913;-76
2023/03/25 00:37:58;;;;;;;;;;;18.90;52.00;;;;;;4999665;28;19914;-75
2023/03/25 00:40:25;;;;;;;;;;;18.90;51.80;;;;;;5021879;28;20286;-75
2023/03/25 00:42:50;;;;;;;;;;;18.90;51.90;;;;;;5021299;28;20000;-75
2023/03/25 00:45:16;;;;;;;;;;;18.80;51.90;;;;;;5016783;28;20415;-76
2023/03/25 00:47:42;;;;;;;;;;;18.90;51.70;;;;;;5015657;28;19925;-76
2023/03/25 00:50:08;;;;;;;;;;;18.80;51.70;;;;;;5007542;28;19914;-76
2023/03/25 00:52:33;;;;;;;;;;;18.80;51.90;;;;;;5019657;28;20397;-76
2023/03/25 00:55:00;;;;;;;;;;;18.80;51.70;;;;;;5013039;28;20460;-75
2023/03/25 00:57:26;;;;;;;;;;;18.80;51.80;;;;;;5011315;28;19917;-75
2023/03/25 00:59:51;;;;;;;;;;;18.80;51.60;;;;;;5009126;28;20012;-75
2023/03/25 01:02:20;;;;;;;;;;;18.80;51.90;;;;;;5002053;28;19918;-76
2023/03/25 01:04:45;;;;;;;;;;;18.80;51.90;;;;;;5058183;28;19944;-76
2023/03/25 01:07:14;;;;;;;;;;;18.70;51.60;;;;;;5005741;28;19965;-76
2023/03/25 01:09:40;;;;;;;;;;;18.70;52.10;;;;;;5025567;28;20491;-76
2023/03/25 01:12:06;;;;;;;;;;;18.70;51.60;;;;;;5001662;28;19921;-75
2023/03/25 01:14:31;;;;;;;;;;;18.70;51.80;;;;;;4998753;28;19914;-75
2023/03/25 01:16:57;;;;;;;;;;;18.70;52.30;;;;;;5013674;28;19928;-75
2023/03/25 01:19:23;;;;;;;;;;;18.70;51.90;;;;;;5016015;28;20377;-75
2023/03/25 01:21:48;;;;;;;;;;;18.70;52.10;;;;;;5008946;28;19921;-76
2023/03/25 01:24:14;;;;;;;;;;;18.60;51.90;;;;;;5010221;28;20302;-76
2023/03/25 01:26:42;;;;;;;;;;;18.60;51.90;;;;;;5010693;28;19923;-75
2023/03/25 01:29:09;;;;;;;;;;;18.60;51.90;;;;;;5011693;28;19921;-76
2023/03/25 01:31:34;;;;;;;;;;;18.60;51.90;;;;;;5004534;28;19962;-75
2023/03/25 01:34:00;;;;;;;;;;;18.60;51.90;;;;;;5017869;28;19917;-75
2023/03/25 01:36:28;;;;;;;;;;;18.60;51.80;;;;;;5019031;28;19929;-76
2023/03/25 01:38:53;;;;;;;;;;;18.60;52.20;;;;;;5009108;28;20025;-75
2023/03/25 01:41:19;;;;;;;;;;;18.50;51.80;;;;;;5010665;28;19969;-76
2023/03/25 01:44:23;;;;;;;;;;;18.60;51.90;;;;;;5003249;28;19913;-75
2023/03/25 01:46:51;;;;;;;;;;;18.50;52.30;;;;;;4979705;28;20422;-75
2023/03/25 01:49:37;;;;;;;;;;;18.50;51.90;;;;;;4998970;28;20058;-75
2023/03/25 01:52:23;;;;;;;;;;;18.50;51.90;;;;;;5010060;28;19992;-75
2023/03/25 01:54:49;;;;;;;;;;;18.50;52.10;;;;;;5009318;28;19969;-76
2023/03/25 01:57:17;;;;;;;;;;;18.50;52.00;;;;;;5011045;28;20421;-76
2023/03/25 01:59:42;;;;;;;;;;;18.50;52.60;;;;;;5013543;28;20019;-75
2023/03/25 02:02:07;;;;;;;;;;;18.50;52.40;;;;;;5021285;28;20004;-76
2023/03/25 02:04:43;;;;;;;;;;;18.40;52.10;;;;;;5008360;28;19959;-75
2023/03/25 02:07:09;;;;;;;;;;;18.40;52.50;;;;;;4995189;28;19918;-75
2023/03/25 02:09:34;;;;;;;;;;;18.40;52.10;;;;;;5008898;28;20402;-75
2023/03/25 02:12:00;;;;;;;;;;;18.40;52.20;;;;;;5015349;28;19917;-75
2023/03/25 02:14:26;;;;;;;;;;;18.40;52.10;;;;;;5016904;28;19913;-75
2023/03/25 02:17:00;;;;;;;;;;;18.40;51.80;;;;;;5013930;28;19924;-75
2023/03/25 02:19:32;;;;;;;;;;;18.50;51.70;;;;;;5011752;28;20371;-75
2023/03/25 02:22:16;;;;;;;;;;;18.70;51.60;;;;;;5013074;28;19922;-76
2023/03/25 02:24:42;;;;;;;;;;;18.70;51.60;;;;;;5016773;28;19917;-76
2023/03/25 02:27:26;;;;;;;;;;;18.80;51.40;;;;;;5012341;28;20291;-75
2023/03/25 02:30:05;;;;;;;;;;;18.90;51.10;;;;;;5011498;28;19961;-75
2023/03/25 02:32:31;;;;;;;;;;;19.00;50.70;;;;;;5012122;28;19913;-75
2023/03/25 02:35:00;;;;;;;;;;;19.20;50.80;;;;;;5026239;28;19921;-75
2023/03/25 02:37:33;;;;;;;;;;;19.30;50.30;;;;;;5008618;28;19929;-76
2023/03/25 02:40:05;;;;;;;;;;;19.40;50.00;;;;;;5011871;28;19921;-75
2023/03/25 02:42:44;;;;;;;;;;;19.60;49.90;;;;;;5013870;28;20387;-75
2023/03/25 02:45:16;;;;;;;;;;;19.60;49.70;;;;;;5010056;28;19921;-75
2023/03/25 02:47:43;;;;;;;;;;;19.70;49.50;;;;;;5022101;28;19914;-75
2023/03/25 02:50:10;;;;;;;;;;;19.80;49.20;;;;;;5012018;28;19917;-76
2023/03/25 02:52:40;;;;;;;;;;;19.90;49.10;;;;;;5015304;28;19917;-76
2023/03/25 02:55:08;;;;;;;;;;;19.90;49.10;;;;;;5012477;28;19922;-76
2023/03/25 02:57:33;;;;;;;;;;;19.90;49.00;;;;;;5015874;28;19909;-76
2023/03/25 02:59:59;;;;;;;;;;;19.90;49.00;;;;;;5026881;28;20370;-76
2023/03/25 03:02:25;;;;;;;;;;;20.00;48.80;;;;;;5009624;28;19918;-75
2023/03/25 03:04:51;;;;;;;;;;;20.00;48.60;;;;;;5013370;28;19918;-75
2023/03/25 03:07:32;;;;;;;;;;;20.00;48.70;;;;;;4999165;28;19936;-75
2023/03/25 03:10:18;;;;;;;;;;;20.00;49.20;;;;;;5018842;28;20279;-75
2023/03/25 03:13:03;;;;;;;;;;;19.90;48.70;;;;;;5015885;28;19925;-76
2023/03/25 03:15:45;;;;;;;;;;;19.90;49.00;;;;;;5010659;28;19914;-75
2023/03/25 03:18:17;;;;;;;;;;;19.90;48.70;;;;;;5015416;28;19928;-75
2023/03/25 03:21:09;;;;;;;;;;;20.00;48.60;;;;;;5021274;28;20383;-75
2023/03/25 03:23:40;;;;;;;;;;;20.00;48.60;;;;;;5010814;28;20401;-76
2023/03/25 03:26:16;;;;;;;;;;;19.90;48.70;;;;;;5014490;28;20362;-76
2023/03/25 03:28:44;;;;;;;;;;;19.90;48.70;;;;;;5010406;28;20386;-76
2023/03/25 03:31:24;;;;;;;;;;;20.00;48.60;;;;;;5017162;28;19943;-76
2023/03/25 03:33:52;;;;;;;;;;;20.00;48.60;;;;;;5010905;28;19921;-76
2023/03/25 03:36:19;;;;;;;;;;;19.90;48.70;;;;;;5022135;28;19914;-76
2023/03/25 03:38:56;;;;;;;;;;;19.90;48.70;;;;;;5018267;28;19913;-76
2023/03/25 03:41:22;;;;;;;;;;;19.90;48.50;;;;;;5010614;28;19917;-76
2023/03/25 03:43:53;;;;;;;;;;;19.90;48.60;;;;;;5013778;28;20401;-75
2023/03/25 03:46:19;;;;;;;;;;;19.80;48.80;;;;;;5020045;28;19913;-76
2023/03/25 03:48:47;;;;;;;;;;;19.90;48.70;;;;;;5009636;28;19917;-76
2023/03/25 03:51:23;;;;;;;;;;;19.90;48.40;;;;;;5015313;28;19958;-76
2023/03/25 03:53:50;;;;;;;;;;;19.90;48.60;;;;;;5021473;28;19962;-76
2023/03/25 03:56:20;;;;;;;;;;;19.80;48.80;;;;;;5013095;28;19919;-76
2023/03/25 03:58:47;;;;;;;;;;;19.80;48.70;;;;;;5022960;28;19920;-76
2023/03/25 04:01:13;;;;;;;;;;;19.80;48.80;;;;;;5007814;28;20419;-75
2023/03/25 04:03:41;;;;;;;;;;;19.70;48.90;;;;;;5000462;28;19918;-75
2023/03/25 04:06:34;;;;;;;;;;;19.70;49.30;;;;;;5008111;28;19924;-75
2023/03/25 04:09:26;;;;;;;;;;;19.80;48.60;;;;;;4993125;28;20395;-76
2023/03/25 04:12:11;;;;;;;;;;;19.80;48.50;;;;;;5017842;28;19932;-76
2023/03/25 04:14:37;;;;;;;;;;;19.90;48.30;;;;;;5013186;28;20386;-75
2023/03/25 04:17:03;;;;;;;;;;;20.00;48.10;;;;;;5011405;28;19914;-76
2023/03/25 04:19:32;;;;;;;;;;;20.00;48.20;;;;;;5026797;28;19917;-76
2023/03/25 04:21:58;;;;;;;;;;;20.00;48.10;;;;;;5009650;28;19998;-75
2023/03/25 04:24:25;;;;;;;;;;;20.00;48.00;;;;;;5007528;28;19952;-75
2023/03/25 04:26:51;;;;;;;;;;;20.10;48.00;;;;;;5017432;28;19925;-76
2023/03/25 04:29:17;;;;;;;;;;;20.10;48.00;;;;;;5049938;28;19925;-76
2023/03/25 04:31:49;;;;;;;;;;;20.00;48.10;;;;;;5017722;28;19940;-76
2023/03/25 04:34:14;;;;;;;;;;;20.10;47.80;;;;;;5018980;28;19917;-76
2023/03/25 04:36:41;;;;;;;;;;;20.10;48.00;;;;;;5009945;28;20268;-75
2023/03/25 04:39:08;;;;;;;;;;;20.00;47.90;;;;;;5012416;28;20002;-75
2023/03/25 04:41:33;;;;;;;;;;;20.00;47.70;;;;;;5009584;28;19917;-76
2023/03/25 04:43:59;;;;;;;;;;;20.00;47.90;;;;;;5023280;28;19921;-76
2023/03/25 04:46:24;;;;;;;;;;;20.00;47.80;;;;;;5023616;28;19981;-76
2023/03/25 04:48:52;;;;;;;;;;;20.10;47.90;;;;;;5012055;28;19982;-76
2023/03/25 04:51:18;;;;;;;;;;;20.10;47.70;;;;;;5008332;28;19913;-76
2023/03/25 04:53:44;;;;;;;;;;;20.10;47.80;;;;;;5010620;28;20000;-76
2023/03/25 04:56:11;;;;;;;;;;;20.20;47.70;;;;;;4999157;28;19925;-75
2023/03/25 04:58:37;;;;;;;;;;;20.30;47.80;;;;;;4999344;28;20294;-75
2023/03/25 05:01:04;;;;;;;;;;;20.00;47.80;;;;;;5006838;28;19917;-75
2023/03/25 05:03:30;;;;;;;;;;;20.00;47.80;;;;;;4997039;28;20355;-75
2023/03/25 05:05:56;;;;;;;;;;;19.90;47.90;;;;;;5023018;28;19917;-75
2023/03/25 05:08:21;;;;;;;;;;;19.90;47.90;;;;;;5024998;28;19958;-75
2023/03/25 05:10:47;;;;;;;;;;;19.90;47.90;;;;;;5001956;28;20377;-75
2023/03/25 05:13:12;;;;;;;;;;;19.90;47.90;;;;;;5007091;28;19921;-75
2023/03/25 05:15:38;;;;;;;;;;;19.90;48.00;;;;;;5020475;28;19924;-75
2023/03/25 05:18:05;;;;;;;;;;;20.00;48.10;;;;;;5015691;28;19917;-75
2023/03/25 05:20:33;;;;;;;;;;;20.00;48.00;;;;;;5014165;28;19961;-75
2023/03/25 05:22:59;;;;;;;;;;;20.10;47.70;;;;;;5007777;28;19917;-75
2023/03/25 05:25:25;;;;;;;;;;;20.20;47.60;;;;;;5023614;28;19909;-75
2023/03/25 05:27:50;;;;;;;;;;;20.10;47.50;;;;;;5011244;28;20379;-75
2023/03/25 05:30:16;;;;;;;;;;;20.20;47.50;;;;;;5012533;28;20347;-75
2023/03/25 05:32:44;;;;;;;;;;;20.30;47.50;;;;;;5004288;28;19998;-75
2023/03/25 05:35:09;;;;;;;;;;;20.30;47.40;;;;;;5021789;28;19982;-75
2023/03/25 05:37:36;;;;;;;;;;;20.30;47.40;;;;;;5008057;28;19913;-76
2023/03/25 05:40:03;;;;;;;;;;;20.20;47.50;;;;;;5006449;28;20371;-75
2023/03/25 05:42:28;;;;;;;;;;;20.30;47.40;;;;;;4998412;28;20343;-75
2023/03/25 05:44:54;;;;;;;;;;;20.30;47.40;;;;;;5004845;28;19945;-75
2023/03/25 05:47:20;;;;;;;;;;;20.30;47.40;;;;;;5016880;28;19917;-75
2023/03/25 05:49:46;;;;;;;;;;;20.30;47.30;;;;;;5004089;28;19931;-75
2023/03/25 05:52:12;;;;;;;;;;;20.30;47.40;;;;;;5012648;28;19913;-75
2023/03/25 05:54:40;;;;;;;;;;;20.30;47.30;;;;;;5022545;28;19909;-75
2023/03/25 05:57:06;;;;;;;;;;;20.30;47.40;;;;;;5007765;28;19936;-75
2023/03/25 05:59:32;;;;;;;;;;;20.30;48.00;;;;;;5009107;28;20371;-75
2023/03/25 06:01:57;;;;;;;;;;;20.20;47.50;;;;;;5016559;28;19924;-75
2023/03/25 06:04:23;;;;;;;;;;;20.20;47.60;;;;;;5002296;28;19936;-75
2023/03/25 06:06:49;;;;;;;;;;;20.20;47.60;;;;;;5024252;28;19917;-75
2023/03/25 06:09:16;;;;;;;;;;;20.20;47.50;;;;;;5006417;28;20256;-75
2023/03/25 06:11:42;;;;;;;;;;;20.10;47.60;;;;;;5042649;28;19953;-75
2023/03/25 06:14:08;;;;;;;;;;;20.00;47.70;;;;;;5011388;28;20413;-75
2023/03/25 06:16:34;;;;;;;;;;;20.00;48.00;;;;;;4998272;28;19935;-75
2023/03/25 06:19:00;;;;;;;;;;;19.90;48.00;;;;;;5004438;28;19924;-75
2023/03/25 06:21:26;;;;;;;;;;;19.90;47.90;;;;;;4999231;28;19921;-75
2023/03/25 06:23:52;;;;;;;;;;;20.00;47.80;;;;;;5011895;28;19913;-75
2023/03/25 06:26:18;;;;;;;;;;;20.00;47.70;;;;;;5007976;28;20305;-75
2023/03/25 06:28:44;;;;;;;;;;;20.00;47.70;;;;;;5019720;28;19991;-75
2023/03/25 06:31:11;;;;;;;;;;;20.00;47.60;;;;;;5005975;28;19946;-75
2023/03/25 06:33:36;;;;;;;;;;;20.10;47.60;;;;;;5013832;28;19923;-75
2023/03/25 06:36:02;;;;;;;;;;;20.20;47.40;;;;;;5017934;28;19990;-75
2023/03/25 06:38:28;;;;;;;;;;;20.10;47.40;;;;;;5002310;28;19920;-75
2023/03/25 06:40:55;;;;;;;;;;;20.20;47.40;;;;;;5016686;28;19956;-75
2023/03/25 06:43:21;;;;;;;;;;;20.20;47.30;;;;;;5001976;28;20321;-75
2023/03/25 06:45:49;;;;;;;;;;;20.20;47.40;;;;;;5077532;28;19917;-75
2023/03/25 06:48:15;;;;;;;;;;;20.10;47.50;;;;;;4993121;28;19914;-75
2023/03/25 06:50:40;;;;;;;;;;;20.00;47.50;;;;;;5010940;28;19924;-75
2023/03/25 06:53:06;;;;;;;;;;;20.10;47.50;;;;;;5004172;28;19920;-75
2023/03/25 06:55:31;;;;;;;;;;;20.00;47.50;;;;;;5010935;28;19921;-74
2023/03/25 06:57:57;;;;;;;;;;;20.00;47.70;;;;;;5001059;28;19967;-76
2023/03/25 07:00:23;;;;;;;;;;;19.90;47.90;;;;;;5007293;28;20016;-76
2023/03/25 07:02:49;;;;;;;;;;;19.90;47.70;;;;;;5022326;28;19960;-76
2023/03/25 07:05:14;;;;;;;;;;;20.00;47.50;;;;;;5008994;28;19953;-75
2023/03/25 07:07:40;;;;;;;;;;;20.20;47.50;;;;;;5011971;28;19917;-76
2023/03/25 07:10:06;;;;;;;;;;;20.10;47.50;;;;;;5009898;28;19966;-75
2023/03/25 07:12:32;;;;;;;;;;;20.10;47.50;;;;;;5006680;28;20287;-75
2023/03/25 07:14:58;;;;;;;;;;;20.10;47.50;;;;;;5007338;28;19962;-75
2023/03/25 07:17:23;;;;;;;;;;;20.20;47.40;;;;;;5024784;28;19917;-75
2023/03/25 07:19:49;;;;;;;;;;;20.10;47.60;;;;;;5017791;28;19920;-75
2023/03/25 07:22:14;;;;;;;;;;;20.10;47.50;;;;;;5013541;28;19922;-76
2023/03/25 07:24:40;;;;;;;;;;;20.20;47.40;;;;;;5016376;28;19917;-75
2023/03/25 07:27:05;;;;;;;;;;;20.20;47.50;;;;;;5011130;28;19914;-76
2023/03/25 07:29:31;;;;;;;;;;;20.20;47.50;;;;;;5021468;28;19916;-75
2023/03/25 07:31:56;;;;;;;;;;;20.10;47.50;;;;;;5009170;28;20000;-76
2023/03/25 07:34:22;;;;;;;;;;;20.10;47.50;;;;;;5014508;28;19915;-76
2023/03/25 07:36:47;;;;;;;;;;;20.10;47.40;;;;;;5007253;28;19913;-76
2023/03/25 07:39:13;;;;;;;;;;;20.10;47.40;;;;;;5014014;28;19909;-76
2023/03/25 07:41:38;;;;;;;;;;;20.10;47.60;;;;;;5010627;28;19929;-75
2023/03/25 07:44:04;;;;;;;;;;;20.10;47.80;;;;;;4993060;28;20496;-75
2023/03/25 07:46:29;;;;;;;;;;;20.10;47.70;;;;;;5016655;28;19917;-76
2023/03/25 07:48:55;;;;;;;;;;;20.10;47.90;;;;;;5018728;28;20003;-75
2023/03/25 07:51:20;;;;;;;;;;;20.00;48.00;;;;;;5020479;28;20367;-75
2023/03/25 07:53:46;;;;;;;;;;;19.90;48.00;;;;;;5010286;28;19914;-75
2023/03/25 07:56:11;;;;;;;;;;;19.90;48.10;;;;;;5010171;28;19916;-75
2023/03/25 07:58:37;;;;;;;;;;;20.00;48.10;;;;;;5011413;28;20071;-75
2023/03/25 08:01:02;;;;;;;;;;;20.00;48.00;;;;;;5016087;28;20370;-75
2023/03/25 08:03:28;;;;;;;;;;;19.90;48.00;;;;;;5007075;28;20283;-75
2023/03/25 08:05:53;;;;;;;;;;;19.90;48.20;;;;;;5010393;28;20008;-75
2023/03/25 08:08:19;;;;;;;;;;;19.90;48.30;;;;;;5005440;28;19913;-75
2023/03/25 08:10:46;;;;;;;;;;;20.00;48.20;;;;;;5011190;28;20162;-76
2023/03/25 08:13:11;;;;;;;;;;;19.90;48.10;;;;;;4997993;28;19914;-75
2023/03/25 08:15:37;;;;;;;;;;;20.00;48.00;;;;;;5012389;28;20268;-76
2023/03/25 08:18:04;;;;;;;;;;;20.10;47.90;;;;;;5026086;28;20240;-76
2023/03/25 08:20:29;;;;;;;;;;;20.10;47.80;;;;;;5026817;28;19924;-76
2023/03/25 08:22:57;;;;;;;;;;;20.10;47.80;;;;;;5012537;28;20016;-75
2023/03/25 08:25:23;;;;;;;;;;;20.00;47.90;;;;;;5015026;28;19936;-75
2023/03/25 08:27:48;;;;;;;;;;;19.90;48.00;;;;;;5017782;28;20012;-75
2023/03/25 08:30:14;;;;;;;;;;;19.90;48.10;;;;;;5022273;28;20000;-75
2023/03/25 08:32:40;;;;;;;;;;;20.00;48.20;;;;;;5018839;27;19913;-75
2023/03/25 08:35:05;;;;;;;;;;;20.00;48.20;;;;;;5017851;28;20290;-75
2023/03/25 08:37:34;;;;;;;;;;;20.00;48.10;;;;;;4997854;28;19952;-76
2023/03/25 08:40:08;;;;;;;;;;;20.10;47.90;;;;;;5014845;28;19964;-76
2023/03/25 08:42:37;;;;;;;;;;;20.10;47.90;;;;;;5004754;28;19926;-76
2023/03/25 08:45:03;;;;;;;;;;;20.10;47.80;;;;;;4994882;28;19956;-76
2023/03/25 08:47:29;;;;;;;;;;;20.20;47.80;;;;;;5017798;28;19914;-76
2023/03/25 08:49:54;;;;;;;;;;;20.20;47.70;;;;;;5009510;28;19914;-76
2023/03/25 08:52:20;;;;;;;;;;;20.30;47.40;;;;;;5012907;28;20028;-75
2023/03/25 08:54:45;;;;;;;;;;;20.40;47.40;;;;;;5013854;28;20397;-76
2023/03/25 08:57:11;;;;;;;;;;;20.30;47.60;;;;;;5008238;28;19921;-76
2023/03/25 08:59:36;;;;;;;;;;;20.20;47.90;;;;;;5018550;28;19913;-76
2023/03/25 09:02:02;;;;;;;;;;;20.10;48.10;;;;;;5016983;28;19917;-75
2023/03/25 09:04:27;;;;;;;;;;;20.10;48.00;;;;;;5020688;28;20002;-76
2023/03/25 09:06:53;;;;;;;;;;;20.30;48.20;;;;;;5013943;28;19938;-76
2023/03/25 09:09:18;;;;;;;;;;;20.20;48.60;;;;;;5012883;28;19922;-76
2023/03/25 09:11:44;;;;;;;;;;;20.30;48.00;;;;;;5000506;28;20017;-75
2023/03/25 09:14:09;;;;;;;;;;;20.30;47.90;;;;;;5006093;28;19913;-75
2023/03/25 09:16:35;;;;;;;;;;;20.30;47.90;;;;;;5014481;28;20012;-74
2023/03/25 09:19:01;;;;;;;;;;;20.30;47.90;;;;;;5002958;28;19975;-76
2023/03/25 09:21:26;;;;;;;;;;;20.40;47.90;;;;;;4995096;28;20039;-75
2023/03/25 09:23:51;;;;;;;;;;;20.40;48.00;;;;;;5010184;28;20013;-75
2023/03/25 09:26:17;;;;;;;;;;;20.30;48.10;;;;;;5020720;28;19966;-74
2023/03/25 09:28:42;;;;;;;;;;;20.40;48.20;;;;;;5008796;28;20393;-74
2023/03/25 09:31:08;;;;;;;;;;;20.40;48.20;;;;;;5005080;28;20548;-74
2023/03/25 09:33:34;;;;;;;;;;;20.40;48.30;;;;;;5020771;28;19917;-75
2023/03/25 09:36:00;;;;;;;;;;;20.40;48.30;;;;;;5011217;28;19986;-75
2023/03/25 09:38:25;;;;;;;;;;;20.40;48.30;;;;;;5001556;28;20441;-75
2023/03/25 09:40:50;;;;;;;;;;;20.50;48.40;;;;;;5007906;28;20657;-75
2023/03/25 09:43:28;;;;;;;;;;;20.50;48.30;;;;;;5009190;28;20355;-74
2023/03/25 09:45:54;;;;;;;;;;;20.60;48.30;;;;;;5002481;28;19917;-74
2023/03/25 09:48:28;;;;;;;;;;;20.50;48.20;;;;;;5009027;28;19909;-75
2023/03/25 09:50:54;;;;;;;;;;;20.60;48.30;;;;;;5009900;28;19914;-74
2023/03/25 09:53:23;;;;;;;;;;;20.60;48.30;;;;;;5010628;28;20016;-73
2023/03/25 09:55:48;;;;;;;;;;;20.60;47.60;;;;;;5010802;28;20000;-75
2023/03/25 09:58:32;;;;;;;;;;;20.70;47.40;;;;;;5009226;28;19948;-75
2023/03/25 10:01:25;;;;;;;;;;;20.60;47.40;;;;;;5013779;28;20418;-75
2023/03/25 10:04:00;;;;;;;;;;;20.60;46.80;;;;;;4995089;28;19925;-75
2023/03/25 10:06:25;;;;;;;;;;;20.60;46.70;;;;;;4996376;28;19913;-77
2023/03/25 10:08:54;;;;;;;;;;;20.60;46.40;;;;;;5015149;28;19982;-77
2023/03/25 10:11:41;;;;;;;;;;;20.60;46.30;;;;;;4995507;28;19947;-75
2023/03/25 10:14:10;;;;;;;;;;;20.60;46.50;;;;;;5014108;28;19913;-77
2023/03/25 10:16:41;;;;;;;;;;;20.90;45.80;;;;;;5005267;28;19952;-78
2023/03/25 10:19:21;;;;;;;;;;;20.80;46.20;;;;;;5014121;28;20398;-77
2023/03/25 10:22:02;;;;;;;;;;;20.70;46.30;;;;;;5011468;28;20399;-77
2023/03/25 10:24:30;;;;;;;;;;;20.70;46.50;;;;;;5007763;28;19916;-77
2023/03/25 10:27:05;;;;;;;;;;;20.80;46.80;;;;;;5017309;28;19913;-77
2023/03/25 10:29:46;;;;;;;;;;;20.80;47.00;;;;;;5006975;28;19917;-77
2023/03/25 10:32:16;;;;;;;;;;;20.80;47.30;;;;;;4993790;28;20004;-78
2023/03/25 10:34:45;;;;;;;;;;;20.80;47.40;;;;;;5001787;28;20368;-77
2023/03/25 10:37:11;;;;;;;;;;;20.80;47.40;;;;;;5019012;28;20424;-78
2023/03/25 10:39:43;;;;;;;;;;;20.90;47.60;;;;;;5013312;28;20345;-78
2023/03/25 10:42:18;;;;;;;;;;;20.80;47.70;;;;;;5011669;28;20382;-77
2023/03/25 10:44:44;;;;;;;;;;;20.90;47.70;;;;;;5004444;28;19989;-77
2023/03/25 10:47:19;;;;;;;;;;;20.80;47.60;;;;;;5007139;28;19942;-77
2023/03/25 10:49:46;;;;;;;;;;;20.80;47.70;;;;;;5018256;28;20007;-78
2023/03/25 10:52:11;;;;;;;;;;;20.70;47.70;;;;;;5013613;28;19917;-78
2023/03/25 10:54:38;;;;;;;;;;;20.80;47.80;;;;;;5013458;28;19922;-78
2023/03/25 10:57:05;;;;;;;;;;;20.70;47.80;;;;;;5012383;28;19917;-78
2023/03/25 10:59:52;;;;;;;;;;;20.70;47.90;;;;;;4998586;28;20314;-78
2023/03/25 11:02:19;;;;;;;;;;;20.70;48.00;;;;;;5098060;28;20001;-77
2023/03/25 11:04:45;;;;;;;;;;;20.70;48.10;;;;;;5012440;28;19913;-78
2023/03/25 11:07:21;;;;;;;;;;;20.70;48.40;;;;;;4995296;28;20477;-78
2023/03/25 11:09:46;;;;;;;;;;;20.70;48.30;;;;;;4995664;28;19937;-78
2023/03/25 11:12:12;;;;;;;;;;;20.70;48.50;;;;;;5013601;28;19918;-78
2023/03/25 11:14:38;;;;;;;;;;;20.70;48.50;;;;;;5007045;28;19921;-78
2023/03/25 11:17:14;;;;;;;;;;;20.70;48.50;;;;;;4997525;28;19921;-79
2023/03/25 11:19:40;;;;;;;;;;;20.70;48.50;;;;;;5000153;28;21924;-78
2023/03/25 11:22:15;;;;;;;;;;;20.80;48.60;;;;;;5002049;28;20016;-77
2023/03/25 11:24:44;;;;;;;;;;;20.80;48.70;;;;;;4997981;28;20061;-77
2023/03/25 11:27:09;;;;;;;;;;;20.80;48.70;;;;;;5012176;28;19925;-78
2023/03/25 11:29:35;;;;;;;;;;;20.80;48.70;;;;;;5003748;28;19914;-77
2023/03/25 11:32:04;;;;;;;;;;;20.70;48.70;;;;;;5020912;28;19917;-77
2023/03/25 11:34:30;;;;;;;;;;;20.80;48.80;;;;;;5014856;28;19987;-78
2023/03/25 11:36:59;;;;;;;;;;;20.80;48.70;;;;;;4999468;28;20379;-78
2023/03/25 11:39:24;;;;;;;;;;;20.80;48.80;;;;;;4999133;28;20306;-77
2023/03/25 11:41:50;;;;;;;;;;;20.80;48.60;;;;;;5026863;28;19921;-78
2023/03/25 11:44:28;;;;;;;;;;;20.80;48.70;;;;;;5012490;28;19928;-78
2023/03/25 11:46:55;;;;;;;;;;;20.90;48.80;;;;;;5002440;28;20020;-77
2023/03/25 11:49:21;;;;;;;;;;;20.90;48.80;;;;;;5020601;28;20399;-77
2023/03/25 11:51:48;;;;;;;;;;;20.90;48.70;;;;;;5008706;28;19913;-78
2023/03/25 11:54:14;;;;;;;;;;;21.00;48.80;;;;;;5120560;27;19956;-78
2023/03/25 11:56:40;;;;;;;;;;;21.00;48.60;;;;;;5016974;28;20386;-78
2023/03/25 11:59:16;;;;;;;;;;;21.10;48.70;;;;;;5027633;28;19922;-78
2023/03/25 12:01:46;;;;;;;;;;;21.10;48.70;;;;;;4995309;28;19926;-78
2023/03/25 12:04:12;;;;;;;;;;;21.10;48.90;;;;;;5012342;28;19956;-78
2023/03/25 12:06:51;;;;;;;;;;;21.10;48.80;;;;;;5005219;28;19940;-78
2023/03/25 12:09:16;;;;;;;;;;;21.00;48.80;;;;;;5009951;28;19949;-78
2023/03/25 12:11:45;;;;;;;;;;;21.10;48.70;;;;;;4996741;28;20403;-78
2023/03/25 12:14:23;;;;;;;;;;;21.20;49.00;;;;;;5018296;28;20334;-78
2023/03/25 12:17:10;;;;;;;;;;;21.20;48.90;;;;;;5030163;28;19909;-75
2023/03/25 12:20:11;;;;;;;;;;;21.20;48.90;;;;;;5007090;28;19918;-76
2023/03/25 12:22:56;;;;;;;;;;;21.20;48.90;;;;;;5028788;28;19921;-76
2023/03/25 12:25:27;;;;;;;;;;;21.10;48.90;;;;;;5001782;28;19935;-76
2023/03/25 12:27:53;;;;;;;;;;;21.10;49.00;;;;;;5017075;28;19913;-75
2023/03/25 12:30:37;;;;;;;;;;;21.10;49.20;;;;;;5013392;28;19947;-75
2023/03/25 12:33:03;;;;;;;;;;;21.00;49.20;;;;;;5024960;27;19913;-74
2023/03/25 12:35:43;;;;;;;;;;;21.10;49.00;;;;;;5017790;28;20102;-75
2023/03/25 12:38:18;;;;;;;;;;;21.00;49.00;;;;;;4996294;28;19910;-75
2023/03/25 12:40:47;;;;;;;;;;;21.00;49.00;;;;;;5012331;28;19925;-75
2023/03/25 12:43:24;;;;;;;;;;;20.90;49.00;;;;;;5027112;28;20312;-76
2023/03/25 12:45:50;;;;;;;;;;;20.90;49.00;;;;;;5028001;28;19914;-76
2023/03/25 12:48:32;;;;;;;;;;;21.00;49.00;;;;;;5009360;28;19993;-75
2023/03/25 12:51:16;;;;;;;;;;;21.00;49.20;;;;;;5007349;28;19913;-75
2023/03/25 12:53:49;;;;;;;;;;;21.00;49.30;;;;;;5011983;28;19909;-76
2023/03/25 12:56:50;;;;;;;;;;;20.90;49.10;;;;;;5009835;28;19912;-75
2023/03/25 12:59:35;;;;;;;;;;;21.00;49.20;;;;;;4970671;28;19910;-75
2023/03/25 13:02:06;;;;;;;;;;;21.00;49.20;;;;;;5015304;28;19986;-75
2023/03/25 13:04:44;;;;;;;;;;;21.00;49.10;;;;;;5011544;28;19909;-76
2023/03/25 13:07:17;;;;;;;;;;;21.10;49.00;;;;;;5016040;28;19924;-75
2023/03/25 13:09:57;;;;;;;;;;;21.40;48.60;;;;;;5028227;28;20373;-75
2023/03/25 13:12:27;;;;;;;;;;;21.60;47.90;;;;;;5028408;28;20282;-75
2023/03/25 13:15:05;;;;;;;;;;;21.90;47.50;;;;;;5028576;28;19969;-76
2023/03/25 13:17:41;;;;;;;;;;;22.10;47.00;;;;;;5029274;28;19962;-76
2023/03/25 13:20:09;;;;;;;;;;;22.20;46.80;;;;;;5029452;28;19909;-75
2023/03/25 13:22:36;;;;;;;;;;;22.20;46.70;;;;;;5028085;28;19986;-75
2023/03/25 13:25:03;;;;;;;;;;;22.20;46.70;;;;;;5010631;28;19946;-75
2023/03/25 13:27:33;;;;;;;;;;;22.20;46.80;;;;;;5012313;28;19913;-75
2023/03/25 13:29:58;;;;;;;;;;;21.90;47.10;;;;;;5015378;28;19913;-73
2023/03/25 13:32:25;;;;;;;;;;;21.80;47.40;;;;;;4998079;28;19940;-75
2023/03/25 13:34:52;;;;;;;;;;;21.70;47.60;;;;;;5000877;28;20894;-75
2023/03/25 13:37:18;;;;;;;;;;;21.60;47.80;;;;;;5011664;28;19999;-75
2023/03/25 13:39:49;;;;;;;;;;;21.60;48.00;;;;;;5029736;28;20005;-75
2023/03/25 13:42:20;;;;;;;;;;;21.40;48.20;;;;;;5015574;28;19967;-75
2023/03/25 13:44:46;;;;;;;;;;;21.40;48.50;;;;;;5009889;28;19932;-75
2023/03/25 13:47:17;;;;;;;;;;;21.30;48.70;;;;;;5012111;28;20305;-75
2023/03/25 13:50:02;;;;;;;;;;;21.40;48.80;;;;;;5012227;28;19914;-75
2023/03/25 13:52:30;;;;;;;;;;;21.30;48.80;;;;;;5011790;28;19914;-76
2023/03/25 13:55:15;;;;;;;;;;;21.40;48.90;;;;;;5009704;28;20275;-75
2023/03/25 13:57:53;;;;;;;;;;;21.40;49.00;;;;;;5022464;28;19917;-75
2023/03/25 14:00:43;;;;;;;;;;;21.40;49.00;;;;;;5011195;28;20322;-75
2023/03/25 14:03:14;;;;;;;;;;;21.40;49.00;;;;;;5017739;28;19917;-75
2023/03/25 14:05:43;;;;;;;;;;;21.40;49.10;;;;;;5025451;28;19961;-75
2023/03/25 14:08:32;;;;;;;;;;;21.40;49.30;;;;;;5014141;28;19914;-75
2023/03/25 14:11:20;;;;;;;;;;;21.30;49.40;;;;;;4992959;28;20394;-75
2023/03/25 14:13:49;;;;;;;;;;;21.30;49.60;;;;;;5007912;28;19914;-75
2023/03/25 14:16:17;;;;;;;;;;;21.30;49.60;;;;;;5026765;28;21298;-75
2023/03/25 14:18:47;;;;;;;;;;;21.30;49.60;;;;;;5014499;28;19920;-75
2023/03/25 14:21:22;;;;;;;;;;;21.30;49.60;;;;;;5024222;28;19917;-75
2023/03/25 14:23:59;;;;;;;;;;;21.30;49.60;;;;;;5025363;28;20367;-76
2023/03/25 14:26:25;;;;;;;;;;;21.40;49.50;;;;;;5000390;28;20000;-75
2023/03/25 14:28:50;;;;;;;;;;;21.50;49.40;;;;;;5015971;28;20000;-76